Time;durP1;ratioP1;P1;durP2;ratioP2;P2;SDS_P1;SDS_P2;PMS_P1;PMS_P2;Temp;Humidity;BMP_temperature;BMP_pressure;BME280_temperature;BME280_humidity;BME280_pressure;Samples;Min_cycle;Max_cycle;Signal;HPM_P1;HPM_P2
2023/06/08 00:02:23;;;;;;;4.70;1.98;;;22.60;54.10;;;;;;5071648;28;20120;-61
2023/06/08 00:04:49;;;;;;;5.85;2.42;;;22.60;54.20;;;;;;5072988;28;20049;-61
2023/06/08 00:07:16;;;;;;;5.65;2.38;;;22.60;54.20;;;;;;5072037;28;20075;-61
2023/06/08 00:09:42;;;;;;;5.97;2.58;;;22.60;54.20;;;;;;5071864;28;20047;-62
2023/06/08 00:12:08;;;;;;;4.50;2.33;;;22.60;54.30;;;;;;5072244;28;20048;-61
2023/06/08 00:14:34;;;;;;;4.97;2.50;;;22.60;54.20;;;;;;5071887;28;20041;-62
2023/06/08 00:17:03;;;;;;;4.45;2.30;;;22.60;54.20;;;;;;5071850;28;20411;-62
2023/06/08 00:19:34;;;;;;;5.03;2.70;;;22.60;54.20;;;;;;5072110;28;20040;-62
2023/06/08 00:22:04;;;;;;;5.40;2.28;;;22.60;54.20;;;;;;5072742;28;20041;-61
2023/06/08 00:24:36;;;;;;;4.38;2.40;;;22.50;54.20;;;;;;5070363;28;20068;-62
2023/06/08 00:27:03;;;;;;;5.82;2.70;;;22.60;54.30;;;;;;5073815;28;20381;-61
2023/06/08 00:29:28;;;;;;;4.90;2.55;;;22.60;54.30;;;;;;5076068;28;20385;-62
2023/06/08 00:31:54;;;;;;;4.32;2.30;;;22.50;54.20;;;;;;5075865;28;20519;-61
2023/06/08 00:34:20;;;;;;;4.10;1.95;;;22.50;54.20;;;;;;5076332;28;20435;-62
2023/06/08 00:36:45;;;;;;;5.93;2.50;;;22.50;54.20;;;;;;5076423;28;20049;-62
2023/06/08 00:39:12;;;;;;;6.47;2.60;;;22.50;54.20;;;;;;5075458;28;20119;-62
2023/06/08 00:41:37;;;;;;;5.55;2.50;;;22.50;54.20;;;;;;5076590;28;20036;-61
2023/06/08 00:44:06;;;;;;;5.53;2.30;;;22.50;54.20;;;;;;5075691;28;20059;-62
2023/06/08 00:46:32;;;;;;;5.65;2.40;;;22.50;54.30;;;;;;5076385;28;20048;-62
2023/06/08 00:48:57;;;;;;;5.80;2.40;;;22.50;54.20;;;;;;5058468;28;20047;-62
2023/06/08 00:51:24;;;;;;;4.93;2.50;;;22.50;54.20;;;;;;5073956;28;20051;-62
2023/06/08 00:53:50;;;;;;;6.80;2.72;;;22.50;54.20;;;;;;5076058;28;20511;-62
2023/06/08 00:56:16;;;;;;;5.50;2.60;;;22.50;54.20;;;;;;5074557;28;20048;-62
2023/06/08 00:58:52;;;;;;;4.55;2.70;;;22.50;54.20;;;;;;5074410;28;20048;-62
2023/06/08 01:01:19;;;;;;;5.07;2.35;;;22.50;54.20;;;;;;5057833;28;20074;-62
2023/06/08 01:03:47;;;;;;;5.30;2.47;;;22.50;54.30;;;;;;5076118;28;20051;-62
2023/06/08 01:06:16;;;;;;;4.30;2.38;;;22.50;54.30;;;;;;5074726;28;20400;-61
2023/06/08 01:08:58;;;;;;;4.80;2.60;;;22.40;54.20;;;;;;5075811;28;20067;-62
2023/06/08 01:11:53;;;;;;;5.15;2.83;;;22.50;54.30;;;;;;5074587;28;20044;-62
2023/06/08 01:14:56;;;;;;;5.90;2.33;;;22.40;54.20;;;;;;5073736;28;20040;-62
2023/06/08 01:17:25;;;;;;;4.15;2.38;;;22.50;54.30;;;;;;5075458;28;20048;-62
2023/06/08 01:20:12;;;;;;;5.95;2.75;;;22.40;54.20;;;;;;5073543;28;20040;-62
2023/06/08 01:22:44;;;;;;;4.53;2.60;;;22.40;54.20;;;;;;5074538;28;20054;-61
2023/06/08 01:25:10;;;;;;;6.38;3.00;;;22.40;54.30;;;;;;5075257;28;20387;-62
2023/06/08 01:27:37;;;;;;;5.72;2.33;;;22.40;54.30;;;;;;5073690;28;20527;-62
2023/06/08 01:30:06;;;;;;;3.67;2.22;;;22.40;54.30;;;;;;5075558;28;20049;-62
2023/06/08 01:32:31;;;;;;;4.57;2.17;;;22.40;54.30;;;;;;5075511;28;20049;-62
2023/06/08 01:34:57;;;;;;;3.78;2.13;;;22.30;54.30;;;;;;5074815;28;20033;-61
2023/06/08 01:37:46;;;;;;;5.05;2.47;;;22.40;54.30;;;;;;5073481;28;20058;-62
2023/06/08 01:40:19;;;;;;;4.68;2.35;;;22.40;54.30;;;;;;5075418;28;20041;-62
2023/06/08 01:42:46;;;;;;;4.68;2.67;;;22.30;54.30;;;;;;5075271;28;20044;-62
2023/06/08 01:45:16;;;;;;;4.00;2.20;;;22.40;54.30;;;;;;5057243;28;20036;-62
2023/06/08 01:47:46;;;;;;;5.13;2.40;;;22.30;54.30;;;;;;5040579;28;20106;-62
2023/06/08 01:50:11;;;;;;;5.53;2.47;;;22.30;54.30;;;;;;5057526;28;20036;-62
2023/06/08 01:52:41;;;;;;;5.57;2.45;;;22.30;54.30;;;;;;5057248;28;20098;-62
2023/06/08 01:55:17;;;;;;;4.38;2.60;;;22.30;54.30;;;;;;5056550;28;20115;-62
2023/06/08 01:57:43;;;;;;;5.43;2.33;;;22.30;54.20;;;;;;5075095;28;20044;-62
2023/06/08 02:00:09;;;;;;;4.55;2.60;;;22.30;54.30;;;;;;5074697;28;20064;-61
2023/06/08 02:02:35;;;;;;;5.20;2.83;;;22.30;54.30;;;;;;5074261;28;20094;-62
2023/06/08 02:05:01;;;;;;;4.70;2.35;;;22.30;54.30;;;;;;5073304;28;20044;-62
2023/06/08 02:07:27;;;;;;;4.57;2.00;;;22.30;54.30;;;;;;5074497;28;20067;-62
2023/06/08 02:09:52;;;;;;;3.83;2.00;;;22.30;54.30;;;;;;5074019;28;20095;-62
2023/06/08 02:12:18;;;;;;;6.35;2.58;;;22.30;54.30;;;;;;5074531;28;20055;-62
2023/06/08 02:14:43;;;;;;;4.07;2.30;;;22.30;54.30;;;;;;5074661;28;20507;-62
2023/06/08 02:17:09;;;;;;;4.57;2.33;;;22.30;54.30;;;;;;5073551;28;20120;-62
2023/06/08 02:19:34;;;;;;;5.55;2.40;;;22.20;54.30;;;;;;5074767;28;20060;-62
2023/06/08 02:22:00;;;;;;;5.60;2.50;;;22.30;54.30;;;;;;5073053;28;20048;-62
2023/06/08 02:24:26;;;;;;;5.97;2.55;;;22.20;54.20;;;;;;5073404;28;20044;-62
2023/06/08 02:26:52;;;;;;;3.97;2.20;;;22.20;54.20;;;;;;5074132;28;20547;-62
2023/06/08 02:29:18;;;;;;;4.50;2.15;;;22.20;54.20;;;;;;5072869;28;20048;-62
2023/06/08 02:31:43;;;;;;;4.35;2.40;;;22.20;54.20;;;;;;5073711;28;20123;-62
2023/06/08 02:34:10;;;;;;;4.05;2.25;;;22.20;54.20;;;;;;5074155;28;20072;-62
2023/06/08 02:36:36;;;;;;;5.15;2.72;;;22.20;54.30;;;;;;5073496;28;20101;-62
2023/06/08 02:39:01;;;;;;;3.78;2.50;;;22.30;54.30;;;;;;5074356;28;20087;-62
2023/06/08 02:41:27;;;;;;;4.03;2.08;;;22.20;54.20;;;;;;5073940;28;20047;-62
2023/06/08 02:43:52;;;;;;;4.32;2.13;;;22.20;54.20;;;;;;5073488;28;20036;-62
2023/06/08 02:46:18;;;;;;;5.35;2.47;;;22.20;54.30;;;;;;5073516;28;20037;-62
2023/06/08 02:48:43;;;;;;;7.35;2.78;;;22.20;54.30;;;;;;5072292;28;20044;-62
2023/06/08 02:51:09;;;;;;;4.13;2.15;;;22.20;54.30;;;;;;5072968;28;20365;-62
2023/06/08 02:53:35;;;;;;;4.50;2.30;;;22.20;54.30;;;;;;5073854;28;20041;-62
2023/06/08 02:56:02;;;;;;;4.20;2.42;;;22.20;54.30;;;;;;5073659;28;20407;-62
2023/06/08 02:58:31;;;;;;;4.72;2.50;;;22.20;54.30;;;;;;5072709;28;20052;-62
2023/06/08 03:00:59;;;;;;;5.13;2.72;;;22.20;54.20;;;;;;5073630;28;20055;-62
2023/06/08 03:03:29;;;;;;;3.97;2.35;;;22.20;54.20;;;;;;5073321;28;20045;-62
2023/06/08 03:05:58;;;;;;;3.70;2.53;;;22.20;54.30;;;;;;5071572;28;20045;-62
2023/06/08 03:08:28;;;;;;;4.82;2.40;;;22.10;54.20;;;;;;5073263;28;20041;-62
2023/06/08 03:10:54;;;;;;;4.22;2.35;;;22.10;54.20;;;;;;5073336;28;20041;-62
2023/06/08 03:13:21;;;;;;;5.15;2.60;;;22.10;54.20;;;;;;5072635;28;20041;-62
2023/06/08 03:15:46;;;;;;;3.92;2.38;;;22.10;54.20;;;;;;5073661;28;20061;-62
2023/06/08 03:18:12;;;;;;;5.70;2.70;;;22.10;54.20;;;;;;5073278;28;20040;-62
2023/06/08 03:20:38;;;;;;;4.07;1.83;;;22.10;54.30;;;;;;5072850;28;20040;-62
2023/06/08 03:23:07;;;;;;;4.78;2.30;;;22.10;54.20;;;;;;5073308;28;20037;-62
2023/06/08 03:25:34;;;;;;;4.63;2.42;;;22.10;54.30;;;;;;5073547;28;20079;-62
2023/06/08 03:27:59;;;;;;;4.82;2.35;;;22.10;54.20;;;;;;5072255;28;20056;-62
2023/06/08 03:30:25;;;;;;;5.20;2.53;;;22.10;54.30;;;;;;5071527;28;20214;-62
2023/06/08 03:32:52;;;;;;;5.40;2.40;;;22.10;54.20;;;;;;5072398;28;20044;-62
2023/06/08 03:35:18;;;;;;;5.57;2.83;;;22.10;54.30;;;;;;5072970;28;20051;-62
2023/06/08 03:37:44;;;;;;;4.07;2.45;;;22.10;54.20;;;;;;5073045;28;20044;-62
2023/06/08 03:40:10;;;;;;;4.15;2.20;;;22.10;54.30;;;;;;5072239;28;20064;-62
2023/06/08 03:42:35;;;;;;;5.05;2.50;;;22.00;54.20;;;;;;5073171;28;20079;-62
2023/06/08 03:45:01;;;;;;;5.93;2.38;;;22.00;54.20;;;;;;5071778;28;20097;-62
2023/06/08 03:47:26;;;;;;;5.82;2.72;;;22.00;54.20;;;;;;5072032;28;20068;-62
2023/06/08 03:49:52;;;;;;;6.97;2.60;;;22.00;54.20;;;;;;5073002;28;20122;-62
2023/06/08 03:52:18;;;;;;;4.25;2.50;;;22.00;54.20;;;;;;5072583;28;20044;-62
2023/06/08 03:54:44;;;;;;;4.22;2.13;;;22.00;54.20;;;;;;5072266;28;20475;-62
2023/06/08 03:57:10;;;;;;;5.47;2.92;;;22.00;54.20;;;;;;5072587;28;20076;-62
2023/06/08 03:59:38;;;;;;;3.75;2.30;;;22.00;54.20;;;;;;5072918;28;20044;-62
2023/06/08 04:02:04;;;;;;;4.32;2.22;;;22.00;54.20;;;;;;5055340;28;20047;-61
2023/06/08 04:04:30;;;;;;;4.10;2.45;;;22.00;54.20;;;;;;5064303;28;20055;-62
2023/06/08 04:07:00;;;;;;;4.43;2.25;;;22.00;54.20;;;;;;5071265;28;20048;-62
2023/06/08 04:09:27;;;;;;;3.80;2.33;;;22.00;54.20;;;;;;5071026;28;20575;-62
2023/06/08 04:11:52;;;;;;;4.47;2.53;;;22.00;54.20;;;;;;5072715;28;20045;-62
2023/06/08 04:14:18;;;;;;;4.65;2.60;;;22.00;54.20;;;;;;5072293;28;20063;-62
2023/06/08 04:16:43;;;;;;;4.43;1.95;;;22.00;54.30;;;;;;5072153;28;20128;-62
2023/06/08 04:19:09;;;;;;;4.75;2.25;;;22.00;54.30;;;;;;5072475;28;20132;-62
2023/06/08 04:21:35;;;;;;;5.40;2.25;;;22.00;54.30;;;;;;5072578;28;20059;-62
2023/06/08 04:24:02;;;;;;;4.20;2.17;;;22.00;54.30;;;;;;5071929;28;20116;-62
2023/06/08 04:26:28;;;;;;;4.25;2.33;;;22.00;54.30;;;;;;5072080;28;20044;-62
2023/06/08 04:28:54;;;;;;;5.03;2.35;;;22.00;54.30;;;;;;5072766;28;20045;-62
2023/06/08 04:31:20;;;;;;;4.28;2.15;;;22.00;54.30;;;;;;5071340;28;20109;-62
2023/06/08 04:33:46;;;;;;;4.82;2.30;;;22.00;54.30;;;;;;5072309;28;20441;-62
2023/06/08 04:36:11;;;;;;;5.05;2.63;;;22.00;54.30;;;;;;5071636;28;20123;-62
2023/06/08 04:38:37;;;;;;;4.57;2.00;;;22.00;54.30;;;;;;5072398;28;20044;-62
2023/06/08 04:41:02;;;;;;;4.35;2.22;;;21.90;54.30;;;;;;5072557;28;20047;-62
2023/06/08 04:43:30;;;;;;;6.55;2.65;;;21.90;54.20;;;;;;5071531;28;20048;-62
2023/06/08 04:45:59;;;;;;;4.15;2.50;;;21.90;54.30;;;;;;5072287;28;20072;-62
2023/06/08 04:48:28;;;;;;;4.07;2.30;;;21.90;54.30;;;;;;5071853;28;20044;-62
2023/06/08 04:50:54;;;;;;;5.80;2.97;;;21.90;54.30;;;;;;5071302;28;20127;-62
2023/06/08 04:53:23;;;;;;;4.40;2.28;;;21.90;54.30;;;;;;5070889;28;20094;-62
2023/06/08 04:55:56;;;;;;;4.30;2.53;;;21.90;54.30;;;;;;5072498;28;20056;-62
2023/06/08 04:58:26;;;;;;;5.68;2.42;;;21.90;54.30;;;;;;5071136;28;20522;-62
2023/06/08 05:00:52;;;;;;;3.80;2.35;;;21.90;54.30;;;;;;5070998;28;20048;-62
2023/06/08 05:03:19;;;;;;;5.80;2.45;;;21.90;54.30;;;;;;5071996;28;20112;-62
2023/06/08 05:05:45;;;;;;;4.72;2.20;;;22.00;54.30;;;;;;5071487;28;20048;-62
2023/06/08 05:08:10;;;;;;;5.10;2.40;;;22.00;54.30;;;;;;5071886;28;20442;-62
2023/06/08 05:10:36;;;;;;;6.43;2.55;;;22.00;54.40;;;;;;5072207;28;20052;-62
2023/06/08 05:13:01;;;;;;;4.22;2.28;;;22.00;54.30;;;;;;5073910;28;20044;-62
2023/06/08 05:15:30;;;;;;;3.88;2.08;;;22.00;54.30;;;;;;5075313;28;20047;-62
2023/06/08 05:17:56;;;;;;;4.30;2.30;;;22.00;54.30;;;;;;5075764;28;20068;-62
2023/06/08 05:20:22;;;;;;;3.03;2.00;;;22.00;54.40;;;;;;5074785;28;20072;-62
2023/06/08 05:22:48;;;;;;;5.40;2.47;;;22.00;54.30;;;;;;5075667;28;20140;-62
2023/06/08 05:25:14;;;;;;;3.53;1.92;;;22.00;54.30;;;;;;5075455;28;20462;-62
2023/06/08 05:27:39;;;;;;;4.15;2.03;;;22.00;54.30;;;;;;5074621;28;20053;-62
2023/06/08 05:30:06;;;;;;;5.65;2.47;;;22.00;54.40;;;;;;5074027;28;20040;-62
2023/06/08 05:32:31;;;;;;;4.63;2.65;;;22.00;54.40;;;;;;5074750;28;20040;-62
2023/06/08 05:34:58;;;;;;;4.45;2.40;;;22.00;54.40;;;;;;5075332;28;20048;-62
2023/06/08 05:37:24;;;;;;;4.75;2.40;;;22.00;54.40;;;;;;5074872;28;20510;-63
2023/06/08 05:39:50;;;;;;;4.70;2.83;;;22.00;54.40;;;;;;5074510;28;20052;-62
2023/06/08 05:42:15;;;;;;;3.78;2.22;;;22.00;54.40;;;;;;5074954;28;20040;-62
2023/06/08 05:44:41;;;;;;;5.57;2.45;;;22.00;54.30;;;;;;5074989;28;20037;-62
2023/06/08 05:47:06;;;;;;;5.47;2.42;;;22.00;54.30;;;;;;5074026;28;20523;-62
2023/06/08 05:49:32;;;;;;;3.95;2.17;;;22.10;54.30;;;;;;5075328;28;20392;-62
2023/06/08 05:51:58;;;;;;;5.28;2.58;;;22.10;54.30;;;;;;5075104;28;20072;-62
2023/06/08 05:54:23;;;;;;;4.30;2.25;;;22.10;54.30;;;;;;5074046;28;20115;-62
2023/06/08 05:56:50;;;;;;;3.65;2.22;;;22.10;54.30;;;;;;5074924;28;20044;-62
2023/06/08 05:59:15;;;;;;;3.42;2.30;;;22.10;54.20;;;;;;5074749;28;20055;-62
2023/06/08 06:01:41;;;;;;;4.20;2.40;;;22.10;54.20;;;;;;5074334;28;20111;-62
2023/06/08 06:04:07;;;;;;;5.68;2.47;;;22.10;54.20;;;;;;5074595;28;20036;-62
2023/06/08 06:06:32;;;;;;;3.80;2.47;;;22.10;54.20;;;;;;5073478;28;20067;-62
2023/06/08 06:08:58;;;;;;;4.82;2.80;;;22.10;54.20;;;;;;5072637;28;20127;-62
2023/06/08 06:11:25;;;;;;;3.47;2.10;;;22.10;54.20;;;;;;5074242;28;20120;-62
2023/06/08 06:13:51;;;;;;;4.25;2.42;;;22.10;54.20;;;;;;5074380;28;20393;-62
2023/06/08 06:16:16;;;;;;;4.53;2.25;;;22.20;54.20;;;;;;5073749;28;20507;-62
2023/06/08 06:18:43;;;;;;;3.38;2.33;;;22.20;54.20;;;;;;5075263;28;20541;-62
2023/06/08 06:21:09;;;;;;;6.97;2.70;;;22.20;54.20;;;;;;5074383;28;20041;-62
2023/06/08 06:23:34;;;;;;;4.18;2.33;;;22.20;54.20;;;;;;5072596;28;20041;-62
2023/06/08 06:26:00;;;;;;;4.47;2.40;;;22.20;54.20;;;;;;5074254;28;20131;-62
2023/06/08 06:28:25;;;;;;;3.70;2.40;;;22.20;54.20;;;;;;5073739;28;20045;-62
2023/06/08 06:30:51;;;;;;;4.95;2.58;;;22.20;54.20;;;;;;5072215;28;20396;-62
2023/06/08 06:33:16;;;;;;;5.68;2.30;;;22.20;54.20;;;;;;5073804;28;20127;-62
2023/06/08 06:35:42;;;;;;;4.40;2.53;;;22.20;54.20;;;;;;5073391;28;20051;-62
2023/06/08 06:38:08;;;;;;;4.88;2.78;;;22.20;54.20;;;;;;5073726;28;20511;-62
2023/06/08 06:40:33;;;;;;;4.18;2.45;;;22.20;54.10;;;;;;5073086;28;20488;-62
2023/06/08 06:42:59;;;;;;;3.80;2.35;;;22.20;54.20;;;;;;5072093;28;20052;-62
2023/06/08 06:45:25;;;;;;;4.90;2.70;;;22.20;54.10;;;;;;5073865;28;20417;-62
2023/06/08 06:47:50;;;;;;;3.90;2.60;;;22.20;54.10;;;;;;5074163;28;20040;-62
2023/06/08 06:50:16;;;;;;;5.18;2.40;;;22.20;54.10;;;;;;5072828;28;20040;-62
2023/06/08 06:52:41;;;;;;;4.28;2.63;;;22.20;54.10;;;;;;5073598;28;20442;-62
2023/06/08 06:55:07;;;;;;;6.57;2.60;;;22.20;54.10;;;;;;5073430;28;20094;-62
2023/06/08 06:57:34;;;;;;;5.20;2.45;;;22.20;54.10;;;;;;5071878;28;20040;-62
2023/06/08 06:59:59;;;;;;;5.75;2.45;;;22.20;54.10;;;;;;5073675;28;20099;-62
2023/06/08 07:02:28;;;;;;;5.95;2.08;;;22.20;54.10;;;;;;5073589;28;20961;-62
2023/06/08 07:04:55;;;;;;;5.55;2.60;;;22.20;54.10;;;;;;5073110;28;20076;-62
2023/06/08 07:07:23;;;;;;;4.55;2.30;;;22.20;54.10;;;;;;5073220;28;20119;-62
2023/06/08 07:09:48;;;;;;;4.43;2.30;;;22.20;54.10;;;;;;5073780;28;20113;-62
2023/06/08 07:12:14;;;;;;;4.65;2.40;;;22.20;54.10;;;;;;5072319;28;20573;-62
2023/06/08 07:14:40;;;;;;;4.78;2.53;;;22.30;54.10;;;;;;5073617;28;20051;-62
2023/06/08 07:17:05;;;;;;;3.95;2.30;;;22.30;54.10;;;;;;5073243;28;20041;-62
2023/06/08 07:19:33;;;;;;;4.38;2.63;;;22.30;54.10;;;;;;5072548;28;20040;-61
2023/06/08 07:21:58;;;;;;;4.40;2.65;;;22.30;54.10;;;;;;5071872;28;20063;-62
2023/06/08 07:24:24;;;;;;;3.65;2.30;;;22.30;54.00;;;;;;5072735;28;20048;-62
2023/06/08 07:26:50;;;;;;;4.80;2.53;;;22.40;54.00;;;;;;5072129;28;20519;-62
2023/06/08 07:29:15;;;;;;;4.88;2.67;;;22.30;54.00;;;;;;5073078;28;20068;-62
2023/06/08 07:31:41;;;;;;;4.45;2.30;;;22.40;54.00;;;;;;5073035;28;20040;-62
2023/06/08 07:34:06;;;;;;;3.40;2.30;;;22.40;54.70;;;;;;5072261;28;20051;-61
2023/06/08 07:36:35;;;;;;;3.92;2.47;;;22.40;54.00;;;;;;5073055;28;20041;-62
2023/06/08 07:39:02;;;;;;;5.45;2.65;;;22.40;54.00;;;;;;5072377;28;20051;-62
2023/06/08 07:41:27;;;;;;;4.82;2.65;;;22.50;54.00;;;;;;5072886;28;20052;-62
2023/06/08 07:43:53;;;;;;;6.18;2.22;;;22.50;54.00;;;;;;5073366;28;20043;-61
2023/06/08 07:46:19;;;;;;;4.30;2.30;;;22.50;53.90;;;;;;5071991;28;20040;-62
2023/06/08 07:48:45;;;;;;;5.10;2.47;;;22.50;53.90;;;;;;5073106;28;20040;-62
2023/06/08 07:51:10;;;;;;;3.35;2.13;;;22.50;53.90;;;;;;5072719;28;20041;-62
2023/06/08 07:53:39;;;;;;;4.65;2.40;;;22.50;53.90;;;;;;5070923;28;20114;-62
2023/06/08 07:56:05;;;;;;;4.28;2.30;;;22.50;53.90;;;;;;5072980;28;20117;-62
2023/06/08 07:58:31;;;;;;;4.53;2.33;;;22.60;53.90;;;;;;5071762;28;20488;-62
2023/06/08 08:00:57;;;;;;;4.13;2.28;;;22.60;53.90;;;;;;5072149;28;20127;-61
2023/06/08 08:03:23;;;;;;;5.57;2.60;;;22.60;53.90;;;;;;5071405;28;20044;-61
2023/06/08 08:05:49;;;;;;;4.28;2.42;;;22.60;53.90;;;;;;5072688;28;20048;-61
2023/06/08 08:08:15;;;;;;;7.35;2.30;;;22.60;53.90;;;;;;5071448;28;20048;-62
2023/06/08 08:10:41;;;;;;;4.45;2.75;;;22.60;53.80;;;;;;5072762;28;20369;-62
2023/06/08 08:13:07;;;;;;;4.13;2.30;;;22.60;53.90;;;;;;5072247;28;20480;-61
2023/06/08 08:15:32;;;;;;;4.10;2.25;;;22.60;53.80;;;;;;5072150;28;20044;-62
2023/06/08 08:17:58;;;;;;;4.63;2.47;;;22.60;53.80;;;;;;5072838;28;20047;-62
2023/06/08 08:20:24;;;;;;;3.60;2.15;;;22.60;53.80;;;;;;5072213;28;20048;-61
2023/06/08 08:22:49;;;;;;;4.38;2.40;;;22.60;53.80;;;;;;5071502;28;20040;-62
2023/06/08 08:25:15;;;;;;;4.50;2.35;;;22.60;53.80;;;;;;5072165;28;20052;-62
2023/06/08 08:27:40;;;;;;;5.07;2.58;;;22.60;53.90;;;;;;5072301;28;20105;-61
2023/06/08 08:30:06;;;;;;;3.33;1.90;;;22.60;53.80;;;;;;5071282;28;20076;-62
2023/06/08 08:32:32;;;;;;;3.78;2.50;;;22.60;53.80;;;;;;5072795;28;20091;-62
2023/06/08 08:34:57;;;;;;;5.22;2.53;;;22.60;53.80;;;;;;5072602;28;20068;-62
2023/06/08 08:37:23;;;;;;;5.28;2.13;;;22.60;53.80;;;;;;5071429;28;20044;-62
2023/06/08 08:39:48;;;;;;;4.55;2.30;;;22.60;53.80;;;;;;5072644;28;20055;-62
2023/06/08 08:42:16;;;;;;;4.55;2.40;;;22.70;53.80;;;;;;5071569;28;20032;-62
2023/06/08 08:44:42;;;;;;;4.25;2.35;;;22.70;53.80;;;;;;5054932;28;20045;-62
2023/06/08 08:47:10;;;;;;;4.28;2.33;;;22.70;53.70;;;;;;5055246;28;20101;-62
2023/06/08 08:49:40;;;;;;;4.07;2.63;;;22.70;53.70;;;;;;5058130;28;20539;-62
2023/06/08 08:52:08;;;;;;;4.35;2.38;;;22.70;53.70;;;;;;5058297;28;20481;-62
2023/06/08 08:54:34;;;;;;;5.03;2.55;;;22.80;53.70;;;;;;5058979;28;20059;-62
2023/06/08 08:57:00;;;;;;;4.50;2.17;;;22.80;53.70;;;;;;5074328;28;20033;-62
2023/06/08 08:59:29;;;;;;;5.03;2.40;;;22.80;53.60;;;;;;5075928;28;20097;-61
2023/06/08 09:01:55;;;;;;;4.40;2.22;;;22.80;53.60;;;;;;5075996;28;20041;-62
2023/06/08 09:04:22;;;;;;;4.35;2.33;;;22.80;53.60;;;;;;5075150;28;20052;-62
2023/06/08 09:06:48;;;;;;;4.30;1.95;;;22.80;53.50;;;;;;5076052;28;20048;-62
2023/06/08 09:09:14;;;;;;;4.05;2.17;;;22.80;53.50;;;;;;5075412;28;20127;-62
2023/06/08 09:11:58;;;;;;;5.38;2.65;;;22.80;53.50;;;;;;5075149;28;20124;-62
2023/06/08 09:14:24;;;;;;;4.50;2.55;;;22.80;53.50;;;;;;5075697;28;20445;-62
2023/06/08 09:16:50;;;;;;;3.05;2.08;;;22.80;53.40;;;;;;5075922;28;20528;-62
2023/06/08 09:19:15;;;;;;;3.92;2.38;;;22.80;53.50;;;;;;5073274;28;20044;-62
2023/06/08 09:21:43;;;;;;;5.75;2.60;;;22.80;53.50;;;;;;5075759;28;20487;-62
2023/06/08 09:24:12;;;;;;;4.63;2.63;;;22.80;53.50;;;;;;5075201;28;20048;-62
2023/06/08 09:26:48;;;;;;;5.53;2.75;;;22.80;53.50;;;;;;5074575;28;20135;-62
2023/06/08 09:29:40;;;;;;;4.60;2.35;;;22.80;53.50;;;;;;5075330;28;20085;-62
2023/06/08 09:32:12;;;;;;;3.28;2.10;;;22.80;53.50;;;;;;5073247;28;20484;-62
2023/06/08 09:34:49;;;;;;;3.80;2.40;;;22.80;53.50;;;;;;5075349;28;20051;-62
2023/06/08 09:37:14;;;;;;;5.60;2.33;;;22.80;53.50;;;;;;5075062;28;20044;-61
2023/06/08 09:39:41;;;;;;;4.63;2.22;;;22.80;53.50;;;;;;5074565;28;20372;-62
2023/06/08 09:42:07;;;;;;;4.53;2.00;;;22.90;53.50;;;;;;5074961;28;20097;-62
2023/06/08 09:44:32;;;;;;;5.18;2.17;;;22.90;53.50;;;;;;5075457;28;20036;-62
2023/06/08 09:46:58;;;;;;;5.18;2.40;;;22.80;53.40;;;;;;5073251;28;20091;-62
2023/06/08 09:49:24;;;;;;;4.03;1.92;;;22.90;53.40;;;;;;5075015;28;20044;-62
2023/06/08 09:51:51;;;;;;;5.50;2.45;;;22.90;53.40;;;;;;5075254;28;20177;-62
2023/06/08 09:54:17;;;;;;;4.15;2.50;;;22.90;53.40;;;;;;5073790;28;20052;-62
2023/06/08 09:56:55;;;;;;;6.30;2.70;;;22.90;53.30;;;;;;5075138;28;20058;-62
2023/06/08 09:59:26;;;;;;;4.07;2.08;;;22.90;53.30;;;;;;5074373;28;20384;-62
2023/06/08 10:01:57;;;;;;;3.40;2.05;;;22.90;53.30;;;;;;5073282;28;20050;-62
2023/06/08 10:04:36;;;;;;;4.07;2.10;;;22.90;53.30;;;;;;5056884;28;20047;-62
2023/06/08 10:07:04;;;;;;;4.55;2.22;;;22.90;53.30;;;;;;5073140;28;20141;-62
2023/06/08 10:09:31;;;;;;;4.53;2.22;;;22.90;53.20;;;;;;5074596;28;20047;-62
2023/06/08 10:11:57;;;;;;;4.88;2.20;;;22.90;53.20;;;;;;5073665;28;20055;-62
2023/06/08 10:14:25;;;;;;;4.13;2.50;;;22.90;53.20;;;;;;5073804;28;20041;-61
2023/06/08 10:16:51;;;;;;;3.30;1.92;;;23.00;53.20;;;;;;5074822;28;20139;-62
2023/06/08 10:19:16;;;;;;;5.15;2.30;;;23.00;53.20;;;;;;5073322;28;20523;-62
2023/06/08 10:21:42;;;;;;;4.25;2.15;;;23.00;53.20;;;;;;5055780;28;20040;-62
2023/06/08 10:24:07;;;;;;;4.47;2.17;;;23.00;53.20;;;;;;5073901;28;20179;-62
2023/06/08 10:26:33;;;;;;;4.45;2.28;;;23.00;53.20;;;;;;5056591;28;20045;-62
2023/06/08 10:29:10;;;;;;;4.20;2.20;;;23.00;53.20;;;;;;5073653;28;20102;-62
2023/06/08 10:31:38;;;;;;;3.67;2.20;;;23.00;53.20;;;;;;5072999;28;20051;-62
2023/06/08 10:34:11;;;;;;;5.18;2.28;;;23.00;53.20;;;;;;5074385;28;20044;-62
2023/06/08 10:36:39;;;;;;;5.90;2.03;;;23.00;53.20;;;;;;5073549;28;20048;-62
2023/06/08 10:39:10;;;;;;;;;;;23.00;53.20;;;;;;5074389;28;20049;-62
2023/06/08 10:41:40;;;;;;;4.40;2.20;;;23.00;53.20;;;;;;5074178;28;19922;-61
2023/06/08 10:44:06;;;;;;;5.35;2.33;;;23.00;54.00;;;;;;5072952;28;20098;-61
2023/06/08 10:46:41;;;;;;;4.93;2.20;;;23.00;53.20;;;;;;5056242;28;20044;-62
2023/06/08 10:49:07;;;;;;;3.90;2.10;;;23.00;53.30;;;;;;5073096;28;20041;-62
2023/06/08 10:51:42;;;;;;;3.78;1.85;;;23.00;53.90;;;;;;5073723;28;20131;-62
2023/06/08 10:54:09;;;;;;;4.60;2.20;;;23.00;53.20;;;;;;5073585;28;20044;-62
2023/06/08 10:56:46;;;;;;;4.03;2.30;;;23.10;53.30;;;;;;5073112;28;20032;-62
2023/06/08 10:59:12;;;;;;;4.55;2.35;;;23.00;53.20;;;;;;5072069;28;20094;-61
2023/06/08 11:01:37;;;;;;;4.90;2.30;;;23.00;53.20;;;;;;5073023;28;20040;-61
2023/06/08 11:04:04;;;;;;;5.03;2.33;;;23.00;53.30;;;;;;5071723;28;20456;-62
2023/06/08 11:06:30;;;;;;;3.80;2.30;;;23.10;53.30;;;;;;5073296;28;20044;-61
2023/06/08 11:08:56;;;;;;;4.13;2.08;;;23.00;53.30;;;;;;5055832;28;20040;-61
2023/06/08 11:11:21;;;;;;;4.22;2.03;;;23.10;53.30;;;;;;5070716;28;20082;-61
2023/06/08 11:13:47;;;;;;;4.22;2.33;;;23.10;53.30;;;;;;5073264;28;20040;-61
2023/06/08 11:16:12;;;;;;;4.82;2.25;;;23.10;53.30;;;;;;5073262;28;20044;-62
2023/06/08 11:18:38;;;;;;;4.40;2.00;;;23.10;53.30;;;;;;5072901;28;20041;-62
2023/06/08 11:21:03;;;;;;;3.70;1.90;;;23.10;53.30;;;;;;5073545;28;20036;-61
2023/06/08 11:23:33;;;;;;;5.95;2.38;;;23.10;53.30;;;;;;5071652;28;20044;-62
2023/06/08 11:25:59;;;;;;;5.25;2.28;;;23.10;53.40;;;;;;5072503;28;20059;-62
2023/06/08 11:28:25;;;;;;;4.00;2.08;;;23.10;53.30;;;;;;5072662;28;20044;-62
2023/06/08 11:30:53;;;;;;;4.43;2.10;;;23.10;53.40;;;;;;5073289;28;20052;-62
2023/06/08 11:33:19;;;;;;;4.78;2.17;;;23.20;53.40;;;;;;5072172;28;20051;-61
2023/06/08 11:35:49;;;;;;;5.75;2.20;;;23.10;53.40;;;;;;5073355;28;20396;-61
2023/06/08 11:38:15;;;;;;;3.30;1.98;;;23.10;53.30;;;;;;5071057;28;20037;-62
2023/06/08 11:40:41;;;;;;;4.88;2.30;;;23.20;53.40;;;;;;5072937;28;20044;-62
2023/06/08 11:43:09;;;;;;;4.85;2.00;;;23.10;53.40;;;;;;5072901;28;20055;-61
2023/06/08 11:45:35;;;;;;;5.30;2.25;;;23.10;53.30;;;;;;5070909;28;20040;-61
2023/06/08 11:48:00;;;;;;;3.50;1.92;;;23.10;53.30;;;;;;5071675;28;20040;-62
2023/06/08 11:50:26;;;;;;;3.97;2.00;;;23.10;53.30;;;;;;5054483;28;20041;-62
2023/06/08 11:52:52;;;;;;;4.18;2.10;;;23.20;53.40;;;;;;5072204;28;20510;-62
2023/06/08 11:55:19;;;;;;;4.00;2.03;;;23.20;53.40;;;;;;5071237;28;20051;-61
2023/06/08 11:58:07;;;;;;;3.67;2.22;;;23.20;53.30;;;;;;5072714;28;20504;-62
2023/06/08 12:00:33;;;;;;;;;;;23.20;53.40;;;;;;5072543;28;20072;-62
2023/06/08 12:03:00;;;;;;;4.00;2.00;;;23.20;53.40;;;;;;5072812;28;20361;-62
2023/06/08 12:05:32;;;;;;;3.67;2.10;;;23.20;53.40;;;;;;5072556;28;20052;-62
2023/06/08 12:08:10;;;;;;;4.93;2.33;;;23.20;53.30;;;;;;5071820;28;20049;-62
2023/06/08 12:10:41;;;;;;;3.88;2.10;;;23.30;53.30;;;;;;5072581;28;20404;-62
2023/06/08 12:13:11;;;;;;;3.97;2.20;;;23.20;53.30;;;;;;5072332;28;20040;-62
2023/06/08 12:15:47;;;;;;;2.95;2.10;;;23.30;53.30;;;;;;5072170;28;20049;-62
2023/06/08 12:18:14;;;;;;;3.80;2.30;;;23.30;53.30;;;;;;5072344;28;20048;-63
2023/06/08 12:20:40;;;;;;;3.88;2.00;;;23.30;53.30;;;;;;5072066;28;20067;-62
2023/06/08 12:23:06;;;;;;;3.53;2.05;;;23.30;53.30;;;;;;5075068;28;20384;-63
2023/06/08 12:25:31;;;;;;;3.63;2.13;;;23.30;53.30;;;;;;5076814;28;20123;-63
2023/06/08 12:27:57;;;;;;;4.43;2.10;;;23.30;53.20;;;;;;5075687;28;20064;-62
2023/06/08 12:30:23;;;;;;;3.45;2.15;;;23.40;53.30;;;;;;5076169;28;20040;-63
2023/06/08 12:32:50;;;;;;;5.97;1.90;;;23.40;53.30;;;;;;5076550;28;20374;-62
2023/06/08 12:35:16;;;;;;;4.07;2.00;;;23.30;53.20;;;;;;5075690;28;20131;-62
2023/06/08 12:37:43;;;;;;;4.22;2.22;;;23.30;53.20;;;;;;5076498;28;20128;-62
2023/06/08 12:40:09;;;;;;;4.28;2.30;;;23.30;53.20;;;;;;5076450;28;20049;-62
2023/06/08 12:42:35;;;;;;;4.22;2.17;;;23.40;53.30;;;;;;5075794;28;20106;-60
2023/06/08 12:45:01;;;;;;;3.33;1.88;;;23.40;53.30;;;;;;5076347;28;20445;-60
2023/06/08 12:47:27;;;;;;;3.97;2.13;;;23.30;53.20;;;;;;5076065;28;20045;-60
2023/06/08 12:49:53;;;;;;;4.05;2.33;;;23.40;53.30;;;;;;5075535;28;20043;-60